sensor_id;sensor_type;location;lat;lon;timestamp;P1;durP1;ratioP1;P2;durP2;ratioP2
20758;SDS011;10539;53.686;9.158;2022-12-29T00:01:55;7.40;;;6.60;;
20758;SDS011;10539;53.686;9.158;2022-12-29T00:04:21;10.13;;;7.27;;
20758;SDS011;10539;53.686;9.158;2022-12-29T00:06:47;9.13;;;6.63;;
20758;SDS011;10539;53.686;9.158;2022-12-29T00:09:14;9.57;;;7.03;;
20758;SDS011;10539;53.686;9.158;2022-12-29T00:11:41;6.70;;;5.93;;
20758;SDS011;10539;53.686;9.158;2022-12-29T00:14:11;9.07;;;5.93;;
20758;SDS011;10539;53.686;9.158;2022-12-29T00:16:56;8.43;;;7.20;;
20758;SDS011;10539;53.686;9.158;2022-12-29T00:19:22;9.60;;;6.83;;
20758;SDS011;10539;53.686;9.158;2022-12-29T00:22:11;8.23;;;6.30;;
20758;SDS011;10539;53.686;9.158;2022-12-29T00:24:56;7.83;;;6.03;;
20758;SDS011;10539;53.686;9.158;2022-12-29T00:27:34;10.63;;;6.80;;
20758;SDS011;10539;53.686;9.158;2022-12-29T00:30:22;8.40;;;6.97;;
20758;SDS011;10539;53.686;9.158;2022-12-29T00:33:17;8.47;;;7.57;;
20758;SDS011;10539;53.686;9.158;2022-12-29T00:38:29;7.53;;;6.40;;
20758;SDS011;10539;53.686;9.158;2022-12-29T00:41:19;8.70;;;6.73;;
20758;SDS011;10539;53.686;9.158;2022-12-29T00:44:03;9.47;;;7.00;;
20758;SDS011;10539;53.686;9.158;2022-12-29T00:46:30;8.70;;;6.73;;
20758;SDS011;10539;53.686;9.158;2022-12-29T00:48:56;8.77;;;7.77;;
20758;SDS011;10539;53.686;9.158;2022-12-29T00:51:41;8.83;;;7.73;;
20758;SDS011;10539;53.686;9.158;2022-12-29T00:54:07;10.30;;;8.03;;
20758;SDS011;10539;53.686;9.158;2022-12-29T00:56:33;9.23;;;6.60;;
20758;SDS011;10539;53.686;9.158;2022-12-29T00:59:02;8.40;;;7.50;;
20758;SDS011;10539;53.686;9.158;2022-12-29T01:01:30;9.73;;;8.13;;
20758;SDS011;10539;53.686;9.158;2022-12-29T01:03:56;7.80;;;6.67;;
20758;SDS011;10539;53.686;9.158;2022-12-29T01:06:22;10.83;;;8.23;;
20758;SDS011;10539;53.686;9.158;2022-12-29T01:08:48;11.03;;;7.83;;
20758;SDS011;10539;53.686;9.158;2022-12-29T01:11:35;9.27;;;8.13;;
20758;SDS011;10539;53.686;9.158;2022-12-29T01:14:01;9.03;;;7.63;;
20758;SDS011;10539;53.686;9.158;2022-12-29T01:16:26;10.93;;;8.10;;
20758;SDS011;10539;53.686;9.158;2022-12-29T01:18:52;10.73;;;7.20;;
20758;SDS011;10539;53.686;9.158;2022-12-29T01:21:18;13.07;;;8.80;;
20758;SDS011;10539;53.686;9.158;2022-12-29T01:23:44;10.57;;;7.87;;
20758;SDS011;10539;53.686;9.158;2022-12-29T01:26:10;9.00;;;6.47;;
20758;SDS011;10539;53.686;9.158;2022-12-29T01:28:37;9.17;;;7.70;;
20758;SDS011;10539;53.686;9.158;2022-12-29T01:31:09;11.13;;;8.60;;
20758;SDS011;10539;53.686;9.158;2022-12-29T01:33:37;10.53;;;8.13;;
20758;SDS011;10539;53.686;9.158;2022-12-29T01:36:04;11.00;;;8.50;;
20758;SDS011;10539;53.686;9.158;2022-12-29T01:38:32;8.87;;;7.27;;
20758;SDS011;10539;53.686;9.158;2022-12-29T01:40:58;9.23;;;7.87;;
20758;SDS011;10539;53.686;9.158;2022-12-29T01:43:43;9.53;;;8.47;;
20758;SDS011;10539;53.686;9.158;2022-12-29T01:48:52;9.13;;;7.70;;
20758;SDS011;10539;53.686;9.158;2022-12-29T01:51:23;10.50;;;8.17;;
20758;SDS011;10539;53.686;9.158;2022-12-29T01:53:51;11.90;;;10.17;;
20758;SDS011;10539;53.686;9.158;2022-12-29T01:56:19;13.87;;;10.10;;
20758;SDS011;10539;53.686;9.158;2022-12-29T01:58:46;12.03;;;10.17;;
20758;SDS011;10539;53.686;9.158;2022-12-29T02:01:16;13.10;;;9.63;;
20758;SDS011;10539;53.686;9.158;2022-12-29T02:03:44;12.27;;;9.60;;
20758;SDS011;10539;53.686;9.158;2022-12-29T02:06:12;12.33;;;10.27;;
20758;SDS011;10539;53.686;9.158;2022-12-29T02:08:43;11.10;;;8.77;;
20758;SDS011;10539;53.686;9.158;2022-12-29T02:11:11;13.60;;;10.50;;
20758;SDS011;10539;53.686;9.158;2022-12-29T02:13:38;15.77;;;10.73;;
20758;SDS011;10539;53.686;9.158;2022-12-29T02:18:46;15.67;;;11.47;;
20758;SDS011;10539;53.686;9.158;2022-12-29T02:38:33;13.43;;;10.70;;
20758;SDS011;10539;53.686;9.158;2022-12-29T02:44:08;14.37;;;10.93;;
20758;SDS011;10539;53.686;9.158;2022-12-29T02:46:51;14.03;;;10.43;;
20758;SDS011;10539;53.686;9.158;2022-12-29T02:49:38;15.07;;;11.03;;
20758;SDS011;10539;53.686;9.158;2022-12-29T02:52:15;13.53;;;8.37;;
20758;SDS011;10539;53.686;9.158;2022-12-29T02:54:44;12.83;;;10.27;;
20758;SDS011;10539;53.686;9.158;2022-12-29T02:59:48;13.13;;;9.67;;
20758;SDS011;10539;53.686;9.158;2022-12-29T03:08:06;15.67;;;9.40;;
20758;SDS011;10539;53.686;9.158;2022-12-29T03:11:02;11.93;;;9.17;;
20758;SDS011;10539;53.686;9.158;2022-12-29T03:13:59;11.27;;;8.93;;
20758;SDS011;10539;53.686;9.158;2022-12-29T03:16:55;15.07;;;8.97;;
20758;SDS011;10539;53.686;9.158;2022-12-29T03:19:28;9.97;;;7.37;;
20758;SDS011;10539;53.686;9.158;2022-12-29T03:22:01;10.83;;;8.60;;
20758;SDS011;10539;53.686;9.158;2022-12-29T03:24:51;11.43;;;9.00;;
20758;SDS011;10539;53.686;9.158;2022-12-29T03:27:25;9.93;;;8.40;;
20758;SDS011;10539;53.686;9.158;2022-12-29T03:29:57;7.60;;;5.87;;
20758;SDS011;10539;53.686;9.158;2022-12-29T03:32:33;8.87;;;7.03;;
20758;SDS011;10539;53.686;9.158;2022-12-29T03:35:03;8.97;;;8.07;;
20758;SDS011;10539;53.686;9.158;2022-12-29T03:37:34;8.93;;;7.13;;
20758;SDS011;10539;53.686;9.158;2022-12-29T03:40:06;8.43;;;5.70;;
20758;SDS011;10539;53.686;9.158;2022-12-29T03:42:33;7.97;;;6.53;;
20758;SDS011;10539;53.686;9.158;2022-12-29T03:45:01;8.03;;;6.10;;
20758;SDS011;10539;53.686;9.158;2022-12-29T03:47:29;8.07;;;6.33;;
20758;SDS011;10539;53.686;9.158;2022-12-29T03:49:55;7.27;;;6.07;;
20758;SDS011;10539;53.686;9.158;2022-12-29T03:52:20;8.60;;;6.70;;
20758;SDS011;10539;53.686;9.158;2022-12-29T03:54:46;7.47;;;6.67;;
20758;SDS011;10539;53.686;9.158;2022-12-29T03:57:12;7.20;;;6.50;;
20758;SDS011;10539;53.686;9.158;2022-12-29T03:59:38;7.70;;;6.90;;
20758;SDS011;10539;53.686;9.158;2022-12-29T04:02:03;8.13;;;6.00;;
20758;SDS011;10539;53.686;9.158;2022-12-29T04:04:29;9.40;;;6.83;;
20758;SDS011;10539;53.686;9.158;2022-12-29T04:06:55;8.87;;;7.33;;
20758;SDS011;10539;53.686;9.158;2022-12-29T04:09:20;7.87;;;6.73;;
20758;SDS011;10539;53.686;9.158;2022-12-29T04:11:46;8.87;;;7.40;;
20758;SDS011;10539;53.686;9.158;2022-12-29T04:14:12;9.07;;;6.97;;
20758;SDS011;10539;53.686;9.158;2022-12-29T04:16:38;8.23;;;6.70;;
20758;SDS011;10539;53.686;9.158;2022-12-29T04:19:04;7.70;;;6.57;;
20758;SDS011;10539;53.686;9.158;2022-12-29T04:21:31;7.93;;;6.20;;
20758;SDS011;10539;53.686;9.158;2022-12-29T04:23:56;7.97;;;6.47;;
20758;SDS011;10539;53.686;9.158;2022-12-29T04:26:22;8.53;;;7.10;;
20758;SDS011;10539;53.686;9.158;2022-12-29T04:28:48;6.23;;;5.63;;
20758;SDS011;10539;53.686;9.158;2022-12-29T04:31:14;7.67;;;6.97;;
20758;SDS011;10539;53.686;9.158;2022-12-29T04:33:40;6.80;;;6.10;;
20758;SDS011;10539;53.686;9.158;2022-12-29T04:36:05;6.90;;;5.47;;
20758;SDS011;10539;53.686;9.158;2022-12-29T04:38:31;7.73;;;5.13;;
20758;SDS011;10539;53.686;9.158;2022-12-29T04:41:00;6.10;;;4.90;;
20758;SDS011;10539;53.686;9.158;2022-12-29T04:43:26;6.10;;;5.50;;
20758;SDS011;10539;53.686;9.158;2022-12-29T04:45:53;6.37;;;5.77;;
20758;SDS011;10539;53.686;9.158;2022-12-29T04:48:18;7.00;;;5.90;;
20758;SDS011;10539;53.686;9.158;2022-12-29T04:50:46;8.40;;;5.70;;
20758;SDS011;10539;53.686;9.158;2022-12-29T04:53:13;9.70;;;7.30;;
20758;SDS011;10539;53.686;9.158;2022-12-29T04:55:39;7.03;;;6.23;;
20758;SDS011;10539;53.686;9.158;2022-12-29T04:58:05;8.33;;;6.83;;
20758;SDS011;10539;53.686;9.158;2022-12-29T05:00:31;8.13;;;6.90;;
20758;SDS011;10539;53.686;9.158;2022-12-29T05:02:56;9.30;;;7.37;;
20758;SDS011;10539;53.686;9.158;2022-12-29T05:05:22;7.93;;;5.67;;
20758;SDS011;10539;53.686;9.158;2022-12-29T05:07:48;9.07;;;7.77;;
20758;SDS011;10539;53.686;9.158;2022-12-29T05:10:14;8.03;;;6.67;;
20758;SDS011;10539;53.686;9.158;2022-12-29T05:12:39;6.77;;;5.63;;
20758;SDS011;10539;53.686;9.158;2022-12-29T05:15:06;8.20;;;6.60;;
20758;SDS011;10539;53.686;9.158;2022-12-29T05:17:32;6.27;;;5.60;;
20758;SDS011;10539;53.686;9.158;2022-12-29T05:19:58;6.47;;;5.77;;
20758;SDS011;10539;53.686;9.158;2022-12-29T05:22:24;6.80;;;6.03;;
20758;SDS011;10539;53.686;9.158;2022-12-29T05:24:50;6.10;;;5.50;;
20758;SDS011;10539;53.686;9.158;2022-12-29T05:27:16;6.17;;;5.57;;
20758;SDS011;10539;53.686;9.158;2022-12-29T05:29:42;6.07;;;5.17;;
20758;SDS011;10539;53.686;9.158;2022-12-29T05:32:08;5.53;;;4.97;;
20758;SDS011;10539;53.686;9.158;2022-12-29T05:34:33;5.27;;;4.10;;
20758;SDS011;10539;53.686;9.158;2022-12-29T05:36:59;5.03;;;4.37;;
20758;SDS011;10539;53.686;9.158;2022-12-29T05:39:26;5.10;;;4.60;;
20758;SDS011;10539;53.686;9.158;2022-12-29T05:41:52;5.30;;;4.47;;
20758;SDS011;10539;53.686;9.158;2022-12-29T05:44:17;4.13;;;3.47;;
20758;SDS011;10539;53.686;9.158;2022-12-29T05:46:43;6.33;;;4.47;;
20758;SDS011;10539;53.686;9.158;2022-12-29T05:49:09;10.17;;;4.73;;
20758;SDS011;10539;53.686;9.158;2022-12-29T05:51:35;7.10;;;4.40;;
20758;SDS011;10539;53.686;9.158;2022-12-29T05:54:01;4.70;;;3.90;;
20758;SDS011;10539;53.686;9.158;2022-12-29T05:56:26;4.13;;;3.40;;
20758;SDS011;10539;53.686;9.158;2022-12-29T05:58:52;4.57;;;3.30;;
20758;SDS011;10539;53.686;9.158;2022-12-29T06:01:18;4.33;;;3.60;;
20758;SDS011;10539;53.686;9.158;2022-12-29T06:03:43;4.80;;;2.47;;
20758;SDS011;10539;53.686;9.158;2022-12-29T06:06:09;3.10;;;2.80;;
20758;SDS011;10539;53.686;9.158;2022-12-29T06:08:35;3.80;;;2.60;;
20758;SDS011;10539;53.686;9.158;2022-12-29T06:11:01;5.03;;;2.23;;
20758;SDS011;10539;53.686;9.158;2022-12-29T06:13:27;3.63;;;1.60;;
20758;SDS011;10539;53.686;9.158;2022-12-29T06:15:52;7.00;;;2.43;;
20758;SDS011;10539;53.686;9.158;2022-12-29T06:18:18;3.03;;;1.40;;
20758;SDS011;10539;53.686;9.158;2022-12-29T06:20:44;2.47;;;1.50;;
20758;SDS011;10539;53.686;9.158;2022-12-29T06:23:10;4.07;;;1.40;;
20758;SDS011;10539;53.686;9.158;2022-12-29T06:25:38;1.57;;;1.10;;
20758;SDS011;10539;53.686;9.158;2022-12-29T06:28:04;4.37;;;1.40;;
20758;SDS011;10539;53.686;9.158;2022-12-29T06:30:30;3.80;;;1.40;;
20758;SDS011;10539;53.686;9.158;2022-12-29T06:32:57;2.77;;;1.47;;
20758;SDS011;10539;53.686;9.158;2022-12-29T06:35:24;2.40;;;1.27;;
20758;SDS011;10539;53.686;9.158;2022-12-29T06:37:50;2.40;;;1.17;;
20758;SDS011;10539;53.686;9.158;2022-12-29T06:40:16;2.20;;;1.03;;
20758;SDS011;10539;53.686;9.158;2022-12-29T06:42:41;1.60;;;0.83;;
20758;SDS011;10539;53.686;9.158;2022-12-29T06:45:07;3.87;;;1.10;;
20758;SDS011;10539;53.686;9.158;2022-12-29T06:47:34;4.53;;;1.10;;
20758;SDS011;10539;53.686;9.158;2022-12-29T06:50:00;1.50;;;1.07;;
20758;SDS011;10539;53.686;9.158;2022-12-29T06:52:27;1.73;;;0.93;;
20758;SDS011;10539;53.686;9.158;2022-12-29T06:54:54;5.77;;;1.23;;
20758;SDS011;10539;53.686;9.158;2022-12-29T06:57:20;4.83;;;0.80;;
20758;SDS011;10539;53.686;9.158;2022-12-29T06:59:46;3.63;;;1.37;;
20758;SDS011;10539;53.686;9.158;2022-12-29T07:02:12;2.03;;;1.00;;
20758;SDS011;10539;53.686;9.158;2022-12-29T07:04:43;3.27;;;0.90;;
20758;SDS011;10539;53.686;9.158;2022-12-29T07:07:09;1.90;;;1.07;;
20758;SDS011;10539;53.686;9.158;2022-12-29T07:09:34;2.93;;;0.73;;
20758;SDS011;10539;53.686;9.158;2022-12-29T07:12:00;2.30;;;0.93;;
20758;SDS011;10539;53.686;9.158;2022-12-29T07:14:26;4.70;;;0.90;;
20758;SDS011;10539;53.686;9.158;2022-12-29T07:16:52;1.27;;;0.80;;
20758;SDS011;10539;53.686;9.158;2022-12-29T07:19:18;2.73;;;0.77;;
20758;SDS011;10539;53.686;9.158;2022-12-29T07:21:43;3.73;;;0.90;;
20758;SDS011;10539;53.686;9.158;2022-12-29T07:24:09;1.70;;;0.83;;
20758;SDS011;10539;53.686;9.158;2022-12-29T07:26:35;2.20;;;0.87;;
20758;SDS011;10539;53.686;9.158;2022-12-29T07:29:01;4.57;;;0.90;;
20758;SDS011;10539;53.686;9.158;2022-12-29T07:31:30;4.50;;;0.80;;
20758;SDS011;10539;53.686;9.158;2022-12-29T07:33:56;3.20;;;1.00;;
20758;SDS011;10539;53.686;9.158;2022-12-29T07:36:22;5.17;;;0.90;;
20758;SDS011;10539;53.686;9.158;2022-12-29T07:38:47;4.20;;;1.00;;
20758;SDS011;10539;53.686;9.158;2022-12-29T07:41:13;0.97;;;0.80;;
20758;SDS011;10539;53.686;9.158;2022-12-29T07:43:39;4.60;;;1.03;;
20758;SDS011;10539;53.686;9.158;2022-12-29T07:46:05;2.03;;;0.80;;
20758;SDS011;10539;53.686;9.158;2022-12-29T07:48:30;4.00;;;1.00;;
20758;SDS011;10539;53.686;9.158;2022-12-29T07:50:58;3.67;;;1.00;;
20758;SDS011;10539;53.686;9.158;2022-12-29T07:53:24;3.80;;;0.80;;
20758;SDS011;10539;53.686;9.158;2022-12-29T07:55:49;2.00;;;0.90;;
20758;SDS011;10539;53.686;9.158;2022-12-29T07:58:15;3.63;;;0.90;;
20758;SDS011;10539;53.686;9.158;2022-12-29T08:00:41;1.83;;;0.83;;
20758;SDS011;10539;53.686;9.158;2022-12-29T08:03:06;6.17;;;1.23;;
20758;SDS011;10539;53.686;9.158;2022-12-29T08:05:32;3.00;;;0.70;;
20758;SDS011;10539;53.686;9.158;2022-12-29T08:07:59;3.20;;;0.90;;
20758;SDS011;10539;53.686;9.158;2022-12-29T08:10:25;4.07;;;1.27;;
20758;SDS011;10539;53.686;9.158;2022-12-29T08:12:51;2.47;;;0.77;;
20758;SDS011;10539;53.686;9.158;2022-12-29T08:15:16;4.20;;;0.80;;
20758;SDS011;10539;53.686;9.158;2022-12-29T08:17:42;3.70;;;0.73;;
20758;SDS011;10539;53.686;9.158;2022-12-29T08:20:08;4.50;;;0.70;;
20758;SDS011;10539;53.686;9.158;2022-12-29T08:22:34;1.27;;;0.73;;
20758;SDS011;10539;53.686;9.158;2022-12-29T08:25:00;3.43;;;0.80;;
20758;SDS011;10539;53.686;9.158;2022-12-29T08:27:25;4.87;;;0.83;;
20758;SDS011;10539;53.686;9.158;2022-12-29T08:29:51;4.63;;;0.83;;
20758;SDS011;10539;53.686;9.158;2022-12-29T08:32:17;5.37;;;1.20;;
20758;SDS011;10539;53.686;9.158;2022-12-29T08:34:44;3.70;;;0.80;;
20758;SDS011;10539;53.686;9.158;2022-12-29T08:37:10;4.30;;;1.23;;
20758;SDS011;10539;53.686;9.158;2022-12-29T08:39:36;2.50;;;1.10;;
20758;SDS011;10539;53.686;9.158;2022-12-29T08:42:01;4.80;;;1.03;;
20758;SDS011;10539;53.686;9.158;2022-12-29T08:44:27;7.33;;;1.17;;
20758;SDS011;10539;53.686;9.158;2022-12-29T08:46:53;2.97;;;1.10;;
20758;SDS011;10539;53.686;9.158;2022-12-29T08:49:18;3.70;;;0.93;;
20758;SDS011;10539;53.686;9.158;2022-12-29T08:51:44;1.57;;;0.63;;
20758;SDS011;10539;53.686;9.158;2022-12-29T08:54:10;4.27;;;1.00;;
20758;SDS011;10539;53.686;9.158;2022-12-29T08:56:35;5.13;;;1.60;;
20758;SDS011;10539;53.686;9.158;2022-12-29T08:59:01;5.10;;;0.93;;
20758;SDS011;10539;53.686;9.158;2022-12-29T09:01:26;5.20;;;0.93;;
20758;SDS011;10539;53.686;9.158;2022-12-29T09:03:54;4.97;;;1.00;;
20758;SDS011;10539;53.686;9.158;2022-12-29T09:06:20;2.40;;;0.77;;
20758;SDS011;10539;53.686;9.158;2022-12-29T09:08:45;4.90;;;1.07;;
20758;SDS011;10539;53.686;9.158;2022-12-29T09:11:15;5.97;;;1.10;;
20758;SDS011;10539;53.686;9.158;2022-12-29T09:13:47;4.43;;;1.00;;
20758;SDS011;10539;53.686;9.158;2022-12-29T09:16:12;4.23;;;0.90;;
20758;SDS011;10539;53.686;9.158;2022-12-29T09:18:38;5.73;;;1.20;;
20758;SDS011;10539;53.686;9.158;2022-12-29T09:21:05;4.33;;;1.03;;
20758;SDS011;10539;53.686;9.158;2022-12-29T09:23:31;3.60;;;0.80;;
20758;SDS011;10539;53.686;9.158;2022-12-29T09:25:57;4.47;;;1.30;;
20758;SDS011;10539;53.686;9.158;2022-12-29T09:28:23;3.73;;;0.50;;
20758;SDS011;10539;53.686;9.158;2022-12-29T09:30:49;6.83;;;0.97;;
20758;SDS011;10539;53.686;9.158;2022-12-29T09:33:15;4.00;;;1.00;;
20758;SDS011;10539;53.686;9.158;2022-12-29T09:35:42;8.53;;;0.97;;
20758;SDS011;10539;53.686;9.158;2022-12-29T09:38:09;6.97;;;1.30;;
20758;SDS011;10539;53.686;9.158;2022-12-29T09:40:35;3.83;;;1.13;;
20758;SDS011;10539;53.686;9.158;2022-12-29T09:43:05;5.33;;;0.80;;
20758;SDS011;10539;53.686;9.158;2022-12-29T09:45:59;5.70;;;1.10;;
20758;SDS011;10539;53.686;9.158;2022-12-29T09:48:36;10.17;;;1.20;;
20758;SDS011;10539;53.686;9.158;2022-12-29T09:51:08;9.80;;;0.97;;
20758;SDS011;10539;53.686;9.158;2022-12-29T09:53:39;4.10;;;0.80;;
20758;SDS011;10539;53.686;9.158;2022-12-29T09:56:16;7.73;;;1.47;;
20758;SDS011;10539;53.686;9.158;2022-12-29T09:58:47;6.50;;;1.13;;
20758;SDS011;10539;53.686;9.158;2022-12-29T10:01:28;2.50;;;1.00;;
20758;SDS011;10539;53.686;9.158;2022-12-29T10:04:05;6.07;;;1.00;;
20758;SDS011;10539;53.686;9.158;2022-12-29T10:06:34;5.37;;;0.93;;
20758;SDS011;10539;53.686;9.158;2022-12-29T10:09:14;5.57;;;1.30;;
20758;SDS011;10539;53.686;9.158;2022-12-29T10:25:53;5.53;;;0.93;;
20758;SDS011;10539;53.686;9.158;2022-12-29T10:30:49;7.13;;;1.30;;
20758;SDS011;10539;53.686;9.158;2022-12-29T10:33:18;2.73;;;0.90;;
20758;SDS011;10539;53.686;9.158;2022-12-29T10:35:48;3.73;;;1.20;;
20758;SDS011;10539;53.686;9.158;2022-12-29T10:38:19;6.53;;;1.10;;
20758;SDS011;10539;53.686;9.158;2022-12-29T10:43:46;5.97;;;1.33;;
20758;SDS011;10539;53.686;9.158;2022-12-29T10:46:23;6.60;;;1.17;;
20758;SDS011;10539;53.686;9.158;2022-12-29T10:48:51;6.10;;;1.20;;
20758;SDS011;10539;53.686;9.158;2022-12-29T10:51:30;8.67;;;1.33;;
20758;SDS011;10539;53.686;9.158;2022-12-29T10:54:04;7.37;;;1.40;;
20758;SDS011;10539;53.686;9.158;2022-12-29T10:56:43;2.80;;;0.90;;
20758;SDS011;10539;53.686;9.158;2022-12-29T10:59:23;4.90;;;1.10;;
20758;SDS011;10539;53.686;9.158;2022-12-29T11:07:00;8.47;;;1.13;;
20758;SDS011;10539;53.686;9.158;2022-12-29T11:09:28;12.03;;;1.20;;
20758;SDS011;10539;53.686;9.158;2022-12-29T11:11:56;7.93;;;1.10;;
20758;SDS011;10539;53.686;9.158;2022-12-29T11:14:29;5.70;;;1.27;;
20758;SDS011;10539;53.686;9.158;2022-12-29T11:16:57;8.23;;;1.00;;
20758;SDS011;10539;53.686;9.158;2022-12-29T11:19:24;8.70;;;1.07;;
20758;SDS011;10539;53.686;9.158;2022-12-29T11:21:52;3.90;;;0.83;;
20758;SDS011;10539;53.686;9.158;2022-12-29T11:26:48;5.07;;;0.90;;
20758;SDS011;10539;53.686;9.158;2022-12-29T11:29:25;6.23;;;1.10;;
20758;SDS011;10539;53.686;9.158;2022-12-29T11:31:53;6.17;;;0.90;;
20758;SDS011;10539;53.686;9.158;2022-12-29T11:36:57;4.53;;;0.90;;
20758;SDS011;10539;53.686;9.158;2022-12-29T11:39:57;4.03;;;0.77;;
20758;SDS011;10539;53.686;9.158;2022-12-29T11:45:05;5.47;;;1.00;;
20758;SDS011;10539;53.686;9.158;2022-12-29T11:47:41;5.17;;;1.03;;
20758;SDS011;10539;53.686;9.158;2022-12-29T11:50:15;6.00;;;0.90;;
20758;SDS011;10539;53.686;9.158;2022-12-29T11:52:56;6.07;;;0.70;;
20758;SDS011;10539;53.686;9.158;2022-12-29T11:55:39;6.53;;;1.03;;
20758;SDS011;10539;53.686;9.158;2022-12-29T11:58:05;6.63;;;0.87;;
20758;SDS011;10539;53.686;9.158;2022-12-29T12:00:32;4.97;;;0.97;;
20758;SDS011;10539;53.686;9.158;2022-12-29T12:03:14;6.20;;;1.10;;
20758;SDS011;10539;53.686;9.158;2022-12-29T12:11:25;3.03;;;0.80;;
20758;SDS011;10539;53.686;9.158;2022-12-29T12:14:06;8.23;;;0.90;;
20758;SDS011;10539;53.686;9.158;2022-12-29T12:22:34;5.97;;;0.90;;
20758;SDS011;10539;53.686;9.158;2022-12-29T12:25:20;4.07;;;0.80;;
20758;SDS011;10539;53.686;9.158;2022-12-29T12:27:52;4.07;;;1.20;;
20758;SDS011;10539;53.686;9.158;2022-12-29T12:30:24;8.47;;;1.10;;
20758;SDS011;10539;53.686;9.158;2022-12-29T12:32:54;5.77;;;1.00;;
20758;SDS011;10539;53.686;9.158;2022-12-29T12:41:07;7.83;;;1.20;;
20758;SDS011;10539;53.686;9.158;2022-12-29T12:43:39;3.90;;;0.90;;
20758;SDS011;10539;53.686;9.158;2022-12-29T12:54:35;6.97;;;1.17;;
20758;SDS011;10539;53.686;9.158;2022-12-29T12:57:25;8.77;;;1.30;;
20758;SDS011;10539;53.686;9.158;2022-12-29T13:00:23;5.30;;;1.20;;
20758;SDS011;10539;53.686;9.158;2022-12-29T13:11:02;3.73;;;0.93;;
20758;SDS011;10539;53.686;9.158;2022-12-29T13:13:59;5.20;;;0.70;;
20758;SDS011;10539;53.686;9.158;2022-12-29T13:17:04;3.07;;;0.90;;
20758;SDS011;10539;53.686;9.158;2022-12-29T13:19:41;6.27;;;1.17;;
20758;SDS011;10539;53.686;9.158;2022-12-29T13:30:00;4.33;;;1.30;;
20758;SDS011;10539;53.686;9.158;2022-12-29T13:32:46;4.00;;;1.50;;
20758;SDS011;10539;53.686;9.158;2022-12-29T13:38:26;6.77;;;1.40;;
20758;SDS011;10539;53.686;9.158;2022-12-29T13:41:06;2.80;;;1.37;;
20758;SDS011;10539;53.686;9.158;2022-12-29T13:43:37;9.43;;;1.47;;
20758;SDS011;10539;53.686;9.158;2022-12-29T13:46:14;11.07;;;1.80;;
20758;SDS011;10539;53.686;9.158;2022-12-29T13:51:09;3.77;;;1.20;;
20758;SDS011;10539;53.686;9.158;2022-12-29T13:53:42;8.23;;;1.43;;
20758;SDS011;10539;53.686;9.158;2022-12-29T13:56:16;7.87;;;1.43;;
20758;SDS011;10539;53.686;9.158;2022-12-29T14:02:09;2.87;;;1.10;;
20758;SDS011;10539;53.686;9.158;2022-12-29T14:04:55;4.33;;;1.13;;
20758;SDS011;10539;53.686;9.158;2022-12-29T14:07:23;7.23;;;1.13;;
20758;SDS011;10539;53.686;9.158;2022-12-29T14:09:50;11.60;;;1.67;;
20758;SDS011;10539;53.686;9.158;2022-12-29T14:12:21;6.93;;;1.60;;
20758;SDS011;10539;53.686;9.158;2022-12-29T14:17:35;7.80;;;1.37;;
20758;SDS011;10539;53.686;9.158;2022-12-29T14:20:03;8.83;;;1.33;;
20758;SDS011;10539;53.686;9.158;2022-12-29T14:22:54;4.97;;;1.23;;
20758;SDS011;10539;53.686;9.158;2022-12-29T14:28:29;7.67;;;1.77;;
20758;SDS011;10539;53.686;9.158;2022-12-29T14:31:00;7.90;;;1.60;;
20758;SDS011;10539;53.686;9.158;2022-12-29T14:34:14;8.63;;;1.47;;
20758;SDS011;10539;53.686;9.158;2022-12-29T14:36:37;4.97;;;1.20;;
20758;SDS011;10539;53.686;9.158;2022-12-29T14:39:05;5.83;;;1.40;;
20758;SDS011;10539;53.686;9.158;2022-12-29T14:42:06;9.93;;;1.47;;
20758;SDS011;10539;53.686;9.158;2022-12-29T14:47:34;4.73;;;1.10;;
20758;SDS011;10539;53.686;9.158;2022-12-29T14:50:06;6.70;;;1.33;;
20758;SDS011;10539;53.686;9.158;2022-12-29T14:52:54;8.80;;;1.57;;
20758;SDS011;10539;53.686;9.158;2022-12-29T14:58:20;7.97;;;1.40;;
20758;SDS011;10539;53.686;9.158;2022-12-29T15:00:53;4.30;;;1.13;;
20758;SDS011;10539;53.686;9.158;2022-12-29T15:05:51;9.03;;;2.00;;
20758;SDS011;10539;53.686;9.158;2022-12-29T15:08:21;7.03;;;1.73;;
20758;SDS011;10539;53.686;9.158;2022-12-29T15:10:54;9.57;;;1.50;;
20758;SDS011;10539;53.686;9.158;2022-12-29T15:13:37;8.20;;;1.20;;
20758;SDS011;10539;53.686;9.158;2022-12-29T15:16:04;13.63;;;1.40;;
20758;SDS011;10539;53.686;9.158;2022-12-29T15:18:45;7.93;;;1.53;;
20758;SDS011;10539;53.686;9.158;2022-12-29T15:21:11;8.93;;;1.70;;
20758;SDS011;10539;53.686;9.158;2022-12-29T15:23:41;9.47;;;1.50;;
20758;SDS011;10539;53.686;9.158;2022-12-29T15:26:09;10.47;;;1.57;;
20758;SDS011;10539;53.686;9.158;2022-12-29T15:31:15;9.43;;;1.40;;
20758;SDS011;10539;53.686;9.158;2022-12-29T15:33:50;13.27;;;2.07;;
20758;SDS011;10539;53.686;9.158;2022-12-29T15:36:27;12.20;;;1.60;;
20758;SDS011;10539;53.686;9.158;2022-12-29T15:38:54;10.90;;;1.40;;
20758;SDS011;10539;53.686;9.158;2022-12-29T15:44:28;9.83;;;1.50;;
20758;SDS011;10539;53.686;9.158;2022-12-29T15:47:08;10.17;;;1.47;;
20758;SDS011;10539;53.686;9.158;2022-12-29T15:49:42;12.73;;;1.80;;
20758;SDS011;10539;53.686;9.158;2022-12-29T15:52:10;11.23;;;1.60;;
20758;SDS011;10539;53.686;9.158;2022-12-29T15:54:36;9.30;;;1.90;;
20758;SDS011;10539;53.686;9.158;2022-12-29T15:57:03;11.10;;;1.67;;
20758;SDS011;10539;53.686;9.158;2022-12-29T15:59:30;17.57;;;1.97;;
20758;SDS011;10539;53.686;9.158;2022-12-29T16:01:59;12.43;;;1.70;;
20758;SDS011;10539;53.686;9.158;2022-12-29T16:04:30;7.87;;;1.67;;
20758;SDS011;10539;53.686;9.158;2022-12-29T16:06:58;15.07;;;1.93;;
20758;SDS011;10539;53.686;9.158;2022-12-29T16:09:30;6.10;;;1.13;;
20758;SDS011;10539;53.686;9.158;2022-12-29T16:11:57;10.27;;;1.50;;
20758;SDS011;10539;53.686;9.158;2022-12-29T16:16:58;14.67;;;2.10;;
20758;SDS011;10539;53.686;9.158;2022-12-29T16:19:35;12.07;;;1.60;;
20758;SDS011;10539;53.686;9.158;2022-12-29T16:22:17;13.13;;;1.90;;
20758;SDS011;10539;53.686;9.158;2022-12-29T16:27:49;11.80;;;1.60;;
20758;SDS011;10539;53.686;9.158;2022-12-29T16:30:19;12.23;;;1.50;;
20758;SDS011;10539;53.686;9.158;2022-12-29T16:32:56;12.57;;;1.60;;
20758;SDS011;10539;53.686;9.158;2022-12-29T16:35:25;13.07;;;1.70;;
20758;SDS011;10539;53.686;9.158;2022-12-29T16:38:15;11.03;;;1.90;;
20758;SDS011;10539;53.686;9.158;2022-12-29T16:43:22;11.10;;;1.60;;
20758;SDS011;10539;53.686;9.158;2022-12-29T16:50:43;11.40;;;1.70;;
20758;SDS011;10539;53.686;9.158;2022-12-29T16:56:18;8.83;;;1.50;;
20758;SDS011;10539;53.686;9.158;2022-12-29T16:58:47;9.87;;;1.50;;
20758;SDS011;10539;53.686;9.158;2022-12-29T17:01:14;7.80;;;1.63;;
20758;SDS011;10539;53.686;9.158;2022-12-29T17:03:49;12.87;;;2.07;;
20758;SDS011;10539;53.686;9.158;2022-12-29T17:06:18;7.77;;;1.40;;
20758;SDS011;10539;53.686;9.158;2022-12-29T17:08:46;11.43;;;1.63;;
20758;SDS011;10539;53.686;9.158;2022-12-29T17:11:28;9.33;;;1.70;;
20758;SDS011;10539;53.686;9.158;2022-12-29T17:14:17;8.80;;;1.50;;
20758;SDS011;10539;53.686;9.158;2022-12-29T17:16:47;9.90;;;2.00;;
20758;SDS011;10539;53.686;9.158;2022-12-29T17:19:17;18.60;;;2.10;;
20758;SDS011;10539;53.686;9.158;2022-12-29T17:21:44;6.80;;;1.47;;
20758;SDS011;10539;53.686;9.158;2022-12-29T17:24:17;11.47;;;1.60;;
20758;SDS011;10539;53.686;9.158;2022-12-29T17:26:50;9.67;;;1.50;;
20758;SDS011;10539;53.686;9.158;2022-12-29T17:29:19;13.80;;;1.77;;
20758;SDS011;10539;53.686;9.158;2022-12-29T17:31:52;10.17;;;2.13;;
20758;SDS011;10539;53.686;9.158;2022-12-29T17:34:19;11.87;;;1.67;;
20758;SDS011;10539;53.686;9.158;2022-12-29T17:36:45;13.33;;;1.40;;
20758;SDS011;10539;53.686;9.158;2022-12-29T17:39:11;5.27;;;1.47;;
20758;SDS011;10539;53.686;9.158;2022-12-29T17:41:37;6.83;;;1.60;;